This is the latest recevied weather packets stored in our database for station/object DL1AIE-13. If no packets are shown the sender has not sent any weather packets the latest 10 day(s).
| Time | Temp. | Humidity | Pressure | Rain* | Wind** | Luminosity | Snow |
|---|---|---|---|---|---|---|---|
| 1777858045 | 13.33° C | 76% | 1014.2 hPa | 0 mm | - | - | - |
| 1777857440 | 13.33° C | 76% | 1014.2 hPa | 0 mm | - | - | - |
| 1777856837 | 13.33° C | 75% | 1014.3 hPa | 0 mm | - | - | - |
| 1777856254 | 13.89° C | 72% | 1014.4 hPa | 0 mm | - | - | - |
| 1777855650 | 13.89° C | 73% | 1014.4 hPa | 0 mm | - | - | - |
| 1777855047 | 13.89° C | 72% | 1014.3 hPa | 0 mm | - | - | - |
| 1777854443 | 13.89° C | 71% | 1014.2 hPa | 0 mm | - | - | - |
| 1777853839 | 13.89° C | 73% | 1014.4 hPa | 0 mm | - | - | - |
| 1777853256 | 14.44° C | 69% | 1014.3 hPa | 0 mm | - | - | - |
| 1777852651 | 14.44° C | 68% | 1014.3 hPa | 0 mm | - | - | - |
| 1777852047 | 15° C | 65% | 1014.3 hPa | 0 mm | - | - | - |
| 1777851443 | 14.44° C | 70% | 1014.5 hPa | 0 mm | - | - | - |
| 1777850840 | 15° C | 68% | 1014.4 hPa | 0 mm | - | - | - |
| 1777850237 | 15.56° C | 64% | 1014.4 hPa | 0 mm | - | - | - |
| 1777849653 | 15.56° C | 65% | 1014.4 hPa | 0 mm | - | - | - |
| 1777849050 | 15.56° C | 62% | 1014.3 hPa | 0 mm | - | - | - |
| 1777848446 | 15.56° C | 62% | 1014.4 hPa | 0 mm | - | - | - |
| 1777847842 | 16.11° C | 60% | 1014.4 hPa | 0 mm | - | - | - |
| 1777847239 | 16.67° C | 58% | 1014.4 hPa | 0 mm | - | - | - |
| 1777846655 | 16.67° C | 57% | 1014.4 hPa | 0 mm | - | - | - |
| 1777846052 | 16.67° C | 58% | 1014.2 hPa | 0 mm | - | - | - |
| 1777845448 | 16.67° C | 57% | 1014.4 hPa | 0 mm | - | - | - |
| 1777844844 | 17.22° C | 54% | 1014.3 hPa | 0 mm | - | - | - |
| 1777844240 | 17.78° C | 53% | 1014.3 hPa | 0 mm | - | - | - |
| 1777843637 | 17.78° C | 52% | 1014.3 hPa | 0 mm | - | - | - |
* Rain latest hour (hover to see other rain measurements)
** Current wind speed in m/s (hover to see current wind gust speed)